Time;durP1;ratioP1;P1;durP2;ratioP2;P2;SDS_P1;SDS_P2;PMS_P1;PMS_P2;Temp;Humidity;BMP_temperature;BMP_pressure;BME280_temperature;BME280_humidity;BME280_pressure;Samples;Min_cycle;Max_cycle;Signal;HPM_P1;HPM_P2
2022/04/01 00:00:14;;;;;;;146.33;23.63;;;2.10;99.90;2.50;92016.00;;;;7404289;19;20121;-78
2022/04/01 00:02:47;;;;;;;181.10;21.60;;;2.10;99.90;2.40;92046.00;;;;7404207;19;20141;-78
2022/04/01 00:05:15;;;;;;;65.40;18.50;;;2.10;99.90;2.40;92021.00;;;;7403899;19;20632;-78
2022/04/01 00:07:42;;;;;;;43.20;19.50;;;2.10;99.90;2.40;92054.00;;;;7401992;19;20136;-76
2022/04/01 00:10:15;;;;;;;46.10;20.53;;;2.00;99.90;2.30;92036.00;;;;7400555;19;20136;-78
2022/04/01 00:12:45;;;;;;;76.30;23.43;;;1.90;99.90;2.30;92064.00;;;;7402185;19;20141;-77
2022/04/01 00:15:14;;;;;;;173.07;26.47;;;1.90;99.90;2.20;92035.00;;;;7400725;19;20133;-78
2022/04/01 00:17:47;;;;;;;172.93;29.47;;;1.80;99.90;2.30;92049.00;;;;7399701;19;20141;-77
2022/04/01 00:20:14;;;;;;;502.37;40.97;;;1.80;99.90;2.10;92038.00;;;;7397355;19;20137;-77
2022/04/01 00:22:42;;;;;;;331.80;38.77;;;1.70;99.90;2.10;92031.00;;;;7398403;19;20599;-77
2022/04/01 00:25:16;;;;;;;377.07;39.73;;;1.70;99.90;2.00;92032.00;;;;7397321;19;20124;-76
2022/04/01 00:27:43;;;;;;;412.97;41.57;;;1.60;99.90;1.90;92059.00;;;;7397704;19;20192;-77
2022/04/01 00:30:11;;;;;;;535.97;43.40;;;1.60;99.90;1.90;92060.00;;;;7396346;19;20163;-78
2022/04/01 00:32:45;;;;;;;601.93;52.87;;;1.60;99.90;2.00;92057.00;;;;7399457;19;20131;-78
2022/04/01 00:35:12;;;;;;;847.00;59.47;;;1.50;99.90;1.90;92037.00;;;;7399357;19;20133;-76
2022/04/01 00:37:40;;;;;;;751.53;50.03;;;1.50;99.90;1.90;92031.00;;;;7401410;19;20190;-78
2022/04/01 00:40:13;;;;;;;814.13;55.50;;;1.50;99.90;1.90;92031.00;;;;7400607;19;20200;-80
2022/04/01 00:42:41;;;;;;;1046.03;67.47;;;1.60;99.90;2.10;92035.00;;;;7399618;19;20189;-81
2022/04/01 00:45:10;;;;;;;1216.40;66.40;;;1.50;99.90;2.00;92033.00;;;;7399445;19;20136;-78
2022/04/01 00:47:44;;;;;;;1015.57;70.47;;;1.50;99.90;2.10;92031.00;;;;7399594;19;20502;-77
2022/04/01 00:50:11;;;;;;;1253.23;75.13;;;1.50;99.90;2.10;92037.00;;;;7398918;19;20137;-78
2022/04/01 00:52:40;;;;;;;1166.67;74.40;;;1.50;99.90;1.90;92055.00;;;;7396949;19;20623;-76
2022/04/01 00:55:14;;;;;;;1431.17;87.33;;;1.50;99.90;2.10;92027.00;;;;7397285;19;20151;-75
2022/04/01 00:57:41;;;;;;;1248.57;79.93;;;1.50;99.90;2.10;92031.00;;;;7399221;19;20133;-78
2022/04/01 01:00:09;;;;;;;1398.33;86.40;;;1.50;99.90;2.00;92048.00;;;;7397164;19;20137;-77
2022/04/01 01:02:42;;;;;;;1914.90;103.67;;;1.50;99.90;2.00;92030.00;;;;7396706;19;20208;-78
2022/04/01 01:05:10;;;;;;;1985.40;105.50;;;1.50;99.90;2.00;92053.00;;;;7396830;19;20141;-78
2022/04/01 01:07:43;;;;;;;1620.20;90.93;;;1.50;99.90;1.90;92057.00;;;;7396974;19;20141;-78
2022/04/01 01:10:18;;;;;;;975.87;55.10;;;1.50;99.90;1.80;92057.00;;;;7396445;19;20591;-78
2022/04/01 01:12:46;;;;;;;1332.63;81.57;;;1.50;99.90;1.80;92049.00;;;;7400446;19;20158;-78
2022/04/01 01:15:18;;;;;;;1432.07;75.13;;;1.40;99.90;1.80;92063.00;;;;7396483;19;20635;-78
2022/04/01 01:17:51;;;;;;;1469.67;75.53;;;1.40;99.90;1.70;92039.00;;;;7397256;19;20125;-79
2022/04/01 01:20:20;;;;;;;1176.47;69.90;;;1.50;99.90;1.70;92059.00;;;;7397966;19;20181;-78
2022/04/01 01:22:49;;;;;;;1447.77;96.03;;;1.50;99.90;1.80;92028.00;;;;7399722;19;20135;-78
2022/04/01 01:25:23;;;;;;;1950.57;94.93;;;1.40;99.90;1.90;92055.00;;;;7396464;19;20597;-79
2022/04/01 01:27:52;;;;;;;1814.83;99.90;;;1.40;99.90;1.70;92014.00;;;;7395988;19;20158;-78
2022/04/01 01:30:24;;;;;;;1529.27;95.70;;;1.40;99.90;1.70;91978.00;;;;7394819;19;20137;-76
2022/04/01 01:32:58;;;;;;;992.33;59.07;;;1.40;99.90;1.70;92020.00;;;;7393808;19;20157;-78
2022/04/01 01:35:25;;;;;;;1999.90;107.67;;;1.30;99.90;1.60;92031.00;;;;7394612;19;20130;-78
2022/04/01 01:37:52;;;;;;;1882.53;99.83;;;1.30;99.90;1.60;92027.00;;;;7396785;19;20157;-78
2022/04/01 01:40:25;;;;;;;1430.97;90.40;;;1.30;99.90;1.70;92021.00;;;;7396085;19;20141;-77
2022/04/01 01:42:53;;;;;;;1790.77;90.77;;;1.30;99.90;1.60;92026.00;;;;7403042;19;20137;-77
2022/04/01 01:45:20;;;;;;;1606.23;93.53;;;1.30;99.90;1.60;92015.00;;;;7402723;19;20121;-76
2022/04/01 01:47:53;;;;;;;1999.90;135.80;;;1.30;99.90;1.60;92029.00;;;;7400562;19;20172;-75
2022/04/01 01:56:18;;;;;;;1999.90;110.37;;;1.20;99.90;1.40;92021.00;;;;7399023;19;20591;-76
2022/04/01 01:58:51;;;;;;;1999.90;113.37;;;1.20;99.90;1.50;92013.00;;;;7400156;19;20599;-76
2022/04/01 02:01:19;;;;;;;1999.90;135.47;;;1.20;99.90;1.60;92028.00;;;;7400267;19;20145;-76
2022/04/01 02:03:46;;;;;;;1999.90;120.93;;;1.20;99.90;1.40;92020.00;;;;7402230;19;20129;-77
2022/04/01 02:06:23;;;;;;;1999.90;111.87;;;1.20;99.90;1.50;91982.00;;;;7401427;19;20176;-79
2022/04/01 02:08:51;;;;;;;1692.90;89.10;;;1.20;99.90;1.40;92025.00;;;;7398957;19;20176;-77
2022/04/01 02:11:18;;;;;;;1832.60;88.73;;;1.20;99.90;1.50;92021.00;;;;7401739;19;20145;-77
2022/04/01 02:13:52;;;;;;;1999.90;103.63;;;1.10;99.90;1.60;91998.00;;;;7400893;19;20137;-78
2022/04/01 02:16:23;;;;;;;1372.30;79.00;;;1.10;99.90;1.50;92030.00;;;;7398185;19;20583;-77
2022/04/01 02:18:51;;;;;;;1426.23;80.83;;;1.10;99.90;1.60;92013.00;;;;7405624;19;20145;-77
2022/04/01 02:21:25;;;;;;;1292.27;69.33;;;1.10;99.90;1.40;92011.00;;;;7402904;19;20140;-79
2022/04/01 02:23:52;;;;;;;1510.93;84.30;;;1.10;99.90;1.50;92020.00;;;;7402846;19;20141;-78
2022/04/01 02:26:19;;;;;;;1147.00;65.83;;;1.10;99.90;1.30;92028.00;;;;7405342;19;20528;-79
2022/04/01 02:28:56;;;;;;;1730.43;102.43;;;1.10;99.90;1.50;92011.00;;;;7402924;19;20165;-79
2022/04/01 02:31:23;;;;;;;1833.37;95.47;;;1.00;99.90;1.40;91997.00;;;;7402929;19;20141;-77
2022/04/01 02:33:51;;;;;;;1999.90;121.80;;;1.00;99.90;1.40;92002.00;;;;7403804;19;20152;-79
2022/04/01 02:36:25;;;;;;;1999.90;100.30;;;1.10;99.90;1.50;92003.00;;;;7403652;19;20196;-79
2022/04/01 02:38:53;;;;;;;1753.13;94.67;;;1.10;99.90;1.40;92005.00;;;;7404745;19;20133;-77
2022/04/01 02:41:21;;;;;;;1612.37;96.17;;;1.00;99.90;1.40;92008.00;;;;7405648;19;20222;-78
2022/04/01 02:44:08;;;;;;;1298.43;74.10;;;1.00;99.90;1.30;91983.00;;;;7402124;19;20147;-78
2022/04/01 02:46:41;;;;;;;1575.73;95.37;;;1.00;99.90;1.40;92037.00;;;;7404503;19;20125;-78
2022/04/01 02:49:17;;;;;;;1692.43;89.17;;;1.00;99.90;1.30;92027.00;;;;7403155;19;20144;-79
2022/04/01 02:51:56;;;;;;;1461.40;79.57;;;1.00;99.90;1.30;92034.00;;;;7400436;19;20157;-78
2022/04/01 02:54:33;;;;;;;1376.13;83.40;;;1.00;99.90;1.30;92008.00;;;;7403609;19;20461;-77
2022/04/01 02:57:00;;;;;;;1756.90;97.30;;;0.90;99.90;1.20;92025.00;;;;7402172;19;20156;-80
2022/04/01 02:59:29;;;;;;;1999.90;104.97;;;0.90;99.90;1.30;92035.00;;;;7403861;19;20133;-79
2022/04/01 03:02:03;;;;;;;1634.23;82.90;;;0.90;99.90;1.20;92009.00;;;;7402074;19;20125;-78
2022/04/01 03:04:30;;;;;;;1872.10;96.43;;;0.90;99.90;1.20;92018.00;;;;7402691;19;20139;-79
2022/04/01 03:06:57;;;;;;;1323.67;74.47;;;0.90;99.90;1.10;92014.00;;;;7402017;19;20137;-78
2022/04/01 03:09:32;;;;;;;1268.93;71.50;;;0.80;99.90;1.20;92026.00;;;;7399305;19;20180;-79
2022/04/01 03:12:00;;;;;;;1142.47;63.70;;;0.80;99.90;1.10;92009.00;;;;7400081;19;20136;-79
2022/04/01 03:14:27;;;;;;;1775.50;92.53;;;0.80;99.90;1.00;92019.00;;;;7400035;19;20144;-78
2022/04/01 03:17:01;;;;;;;1650.80;84.90;;;0.80;99.90;1.00;92030.00;;;;7399489;19;20148;-80
2022/04/01 03:19:28;;;;;;;1999.90;103.17;;;0.70;99.90;1.20;91961.00;;;;7400288;19;20606;-79
2022/04/01 03:21:55;;;;;;;1736.37;102.80;;;0.80;99.90;1.10;92017.00;;;;7400263;19;20137;-79
2022/04/01 03:24:29;;;;;;;1748.70;82.87;;;0.70;99.90;1.10;92022.00;;;;7401108;19;20132;-79
2022/04/01 03:26:57;;;;;;;1867.93;99.13;;;0.70;99.90;1.00;92010.00;;;;7403484;19;20121;-81
2022/04/01 03:29:24;;;;;;;1964.97;122.30;;;0.70;99.90;1.10;92026.00;;;;7403015;19;20141;-79
2022/04/01 03:31:58;;;;;;;1999.90;97.83;;;0.70;99.90;1.10;92029.00;;;;7405000;19;20496;-80
2022/04/01 03:34:26;;;;;;;1824.10;114.97;;;0.70;99.90;1.00;92011.00;;;;7404597;19;20134;-79
2022/04/01 03:36:54;;;;;;;1747.13;86.03;;;0.70;99.90;1.00;92027.00;;;;7400332;19;20161;-79
2022/04/01 03:39:29;;;;;;;1520.80;78.20;;;0.70;99.90;1.10;92026.00;;;;7403099;19;20144;-79
2022/04/01 03:41:56;;;;;;;1431.80;76.43;;;0.70;99.90;1.10;92016.00;;;;7400708;19;20137;-79
2022/04/01 03:44:25;;;;;;;1754.83;92.07;;;0.70;99.90;1.00;92020.00;;;;7401159;19;20157;-77
2022/04/01 03:47:05;;;;;;;1999.90;105.00;;;0.70;99.90;0.90;92045.00;;;;7402344;19;20479;-78
2022/04/01 03:49:33;;;;;;;1464.87;77.20;;;0.70;99.90;1.00;91994.00;;;;7398745;19;20140;-77
2022/04/01 03:52:23;;;;;;;1876.10;91.00;;;0.70;99.90;1.10;91997.00;;;;7400343;19;20156;-77
2022/04/01 03:55:00;;;;;;;1831.60;89.47;;;0.70;99.90;1.00;92013.00;;;;7400329;19;20148;-78
2022/04/01 03:57:37;;;;;;;1712.97;96.87;;;0.70;99.90;0.90;92046.00;;;;7395576;19;20505;-78
2022/04/01 04:00:12;;;;;;;1334.53;73.63;;;0.60;99.90;0.90;92041.00;;;;7395703;19;20157;-78
2022/04/01 04:02:46;;;;;;;1881.80;82.57;;;0.60;99.90;0.90;92040.00;;;;7395726;19;20136;-78
2022/04/01 04:05:19;;;;;;;1567.47;91.03;;;0.60;99.90;1.10;92042.00;;;;7397898;19;20137;-78
2022/04/01 04:07:48;;;;;;;1601.33;95.40;;;0.50;99.90;1.00;92001.00;;;;7397699;19;20133;-77
2022/04/01 04:10:27;;;;;;;1590.03;86.97;;;0.50;99.90;1.00;92025.00;;;;7394474;19;20219;-79
2022/04/01 04:12:58;;;;;;;1416.97;77.47;;;0.50;99.90;0.90;92015.00;;;;7396758;19;20550;-77
2022/04/01 04:15:43;;;;;;;1312.37;74.80;;;0.50;99.90;0.90;92034.00;;;;7398509;19;20131;-78
2022/04/01 04:18:13;;;;;;;1439.50;80.90;;;0.50;99.90;0.80;92020.00;;;;7398727;19;20137;-78
2022/04/01 04:21:21;;;;;;;1464.80;83.20;;;0.50;99.90;0.90;92039.00;;;;7396914;19;20133;-77
2022/04/01 04:24:01;;;;;;;1375.43;84.83;;;0.50;99.90;0.90;92024.00;;;;7397503;19;20127;-78
2022/04/01 04:26:47;;;;;;;1651.40;89.60;;;0.50;99.90;0.90;92016.00;;;;7396441;19;20168;-79
2022/04/01 04:29:17;;;;;;;1411.70;82.43;;;0.50;99.90;0.90;92055.00;;;;7400107;19;20129;-79
2022/04/01 04:32:03;;;;;;;1508.50;91.13;;;0.50;99.90;1.00;92047.00;;;;7397154;19;20133;-77
2022/04/01 04:34:44;;;;;;;906.83;55.10;;;0.50;99.90;0.90;92029.00;;;;7397927;19;20548;-79
2022/04/01 04:37:27;;;;;;;1024.23;56.70;;;0.50;99.90;0.80;92062.00;;;;7396878;19;20133;-79
2022/04/01 04:39:55;;;;;;;1517.30;88.57;;;0.50;99.90;0.70;92028.00;;;;7398209;19;20188;-77
2022/04/01 04:42:32;;;;;;;1756.87;102.30;;;0.50;99.90;0.80;92021.00;;;;7394517;19;20140;-78
2022/04/01 04:45:00;;;;;;;1751.20;100.23;;;0.50;99.90;0.90;92041.00;;;;7396991;19;20144;-79
2022/04/01 04:47:28;;;;;;;1999.90;131.33;;;0.50;99.90;0.70;92028.00;;;;7399720;19;20160;-78
2022/04/01 04:50:03;;;;;;;1993.40;96.73;;;0.50;99.90;0.70;92049.00;;;;7401247;19;20136;-77
2022/04/01 04:52:48;;;;;;;1503.77;71.13;;;0.50;99.90;0.70;92046.00;;;;7398175;19;20698;-79
2022/04/01 04:55:24;;;;;;;1361.33;70.80;;;0.40;99.90;0.80;92039.00;;;;7400319;19;20128;-78
2022/04/01 04:57:53;;;;;;;1047.77;69.63;;;0.40;99.90;0.70;92075.00;;;;7397910;19;20611;-79
2022/04/01 05:00:21;;;;;;;1299.23;83.53;;;0.40;99.90;0.80;92062.00;;;;7392201;19;20129;-75
2022/04/01 05:03:30;;;;;;;1150.83;71.23;;;0.40;99.90;0.80;92043.00;;;;7390714;19;20121;-76
2022/04/01 05:06:01;;;;;;;1337.17;82.70;;;0.40;99.90;0.70;92060.00;;;;7390247;19;20129;-76
2022/04/01 05:09:13;;;;;;;1250.23;84.93;;;0.40;99.90;0.90;92031.00;;;;7395035;19;20133;-76
2022/04/01 05:12:11;;;;;;;872.57;59.23;;;0.30;99.90;0.70;92067.00;;;;7391102;19;20136;-76
2022/04/01 05:15:19;;;;;;;770.07;60.07;;;0.30;99.90;0.60;92050.00;;;;7398989;19;20152;-76
2022/04/01 05:18:08;;;;;;;1152.00;78.67;;;0.30;99.90;0.70;92063.00;;;;7397523;19;20598;-77
2022/04/01 05:20:56;;;;;;;1135.50;79.23;;;0.30;99.90;0.50;92085.00;;;;7399786;19;20133;-76
2022/04/01 05:23:44;;;;;;;931.33;76.70;;;0.30;99.90;0.60;92055.00;;;;7398239;19;20132;-76
2022/04/01 05:26:38;;;;;;;1326.57;87.37;;;0.30;99.90;0.90;92091.00;;;;7398623;19;20487;-76
2022/04/01 05:29:40;;;;;;;1254.93;84.97;;;0.30;99.90;0.80;92075.00;;;;7399346;19;20135;-76
2022/04/01 05:32:19;;;;;;;1677.03;104.40;;;0.20;99.90;0.70;92084.00;;;;7400322;19;20631;-77
2022/04/01 05:34:49;;;;;;;1601.87;91.83;;;0.30;99.90;0.60;92085.00;;;;7402185;19;20133;-76
2022/04/01 05:37:28;;;;;;;1419.77;88.80;;;0.20;99.90;0.50;92078.00;;;;7397992;19;20141;-77
2022/04/01 05:39:57;;;;;;;1582.40;100.80;;;0.20;99.90;0.60;92080.00;;;;7405069;19;20461;-76
2022/04/01 05:42:33;;;;;;;1494.53;96.90;;;0.20;99.90;0.60;92076.00;;;;7400613;19;20161;-76
2022/04/01 05:45:01;;;;;;;1999.90;117.30;;;0.20;99.90;0.60;92093.00;;;;7400395;19;20552;-76
2022/04/01 05:47:30;;;;;;;1556.77;86.30;;;0.20;99.90;0.60;92098.00;;;;7400032;19;20155;-75
2022/04/01 05:50:06;;;;;;;612.37;48.30;;;0.20;99.90;0.40;92086.00;;;;7398824;19;20143;-76
2022/04/01 05:52:47;;;;;;;648.13;54.93;;;0.20;99.90;0.60;92104.00;;;;7397105;19;20153;-76
2022/04/01 05:55:25;;;;;;;554.67;57.63;;;0.10;99.90;0.50;92091.00;;;;7399548;19;20141;-75
2022/04/01 05:57:54;;;;;;;611.00;61.70;;;0.10;99.90;0.60;92107.00;;;;7395117;19;20141;-76
2022/04/01 06:00:22;;;;;;;780.47;61.57;;;0.10;99.90;0.60;92099.00;;;;7396854;19;20133;-76
2022/04/01 06:03:26;;;;;;;560.10;56.67;;;0.10;99.90;0.40;92125.00;;;;7396228;19;20129;-75
2022/04/01 06:06:19;;;;;;;223.13;41.13;;;0.10;99.90;0.40;92093.00;;;;7395649;19;20163;-75
2022/04/01 06:09:25;;;;;;;92.33;33.47;;;0.10;99.90;0.60;92094.00;;;;7395662;19;20623;-75
2022/04/01 06:12:05;;;;;;;123.60;36.50;;;0.10;99.90;0.50;92136.00;;;;7398601;19;20177;-76
2022/04/01 06:15:01;;;;;;;220.43;41.47;;;0.10;99.90;0.40;92122.00;;;;7401729;19;20486;-76
2022/04/01 06:17:31;;;;;;;304.80;45.57;;;0.10;99.90;0.40;92133.00;;;;7397152;19;20133;-76
2022/04/01 06:20:07;;;;;;;188.57;40.53;;;0.10;99.90;0.50;92086.00;;;;7400256;19;20222;-76
2022/04/01 06:22:52;;;;;;;923.17;64.43;;;0.10;99.90;0.50;92140.00;;;;7400323;19;20152;-76
2022/04/01 06:25:34;;;;;;;671.13;64.07;;;0.00;99.90;0.50;92138.00;;;;7399042;19;20657;-76
2022/04/01 06:28:24;;;;;;;1095.17;76.17;;;0.00;99.90;0.40;92132.00;;;;7395509;19;20167;-77
2022/04/01 06:31:06;;;;;;;514.13;47.90;;;0.00;99.90;0.40;92159.00;;;;7400307;19;20144;-76
2022/04/01 06:34:00;;;;;;;211.83;35.60;;;0.00;99.90;0.30;92153.00;;;;7411402;19;20141;-77
2022/04/01 06:36:46;;;;;;;246.10;41.40;;;0.00;99.90;0.30;92111.00;;;;7403701;19;20140;-77
2022/04/01 06:40:00;;;;;;;507.90;52.27;;;0.00;99.90;0.50;92153.00;;;;7402327;19;20619;-77
2022/04/01 06:42:37;;;;;;;991.20;73.40;;;0.00;99.90;0.40;92127.00;;;;7400223;19;20144;-77
2022/04/01 06:45:11;;;;;;;848.60;61.33;;;0.00;99.90;0.30;92145.00;;;;7397946;19;20140;-78
2022/04/01 06:47:46;;;;;;;572.30;43.03;;;0.00;99.90;0.20;92134.00;;;;7397462;19;20141;-77
2022/04/01 06:50:16;;;;;;;744.63;61.37;;;-0.10;99.90;0.30;92150.00;;;;7399974;19;20600;-78
2022/04/01 06:52:45;;;;;;;920.20;70.40;;;-0.10;99.90;0.30;92147.00;;;;7397510;19;20899;-77
2022/04/01 06:55:27;;;;;;;1111.47;87.27;;;-0.10;99.90;0.30;92119.00;;;;7397904;19;20167;-77
2022/04/01 06:57:55;;;;;;;411.03;43.30;;;-0.10;99.90;0.30;92157.00;;;;7398148;19;20204;-76
2022/04/01 07:00:30;;;;;;;596.67;49.83;;;-0.10;99.90;0.20;92134.00;;;;7397899;19;20642;-76
2022/04/01 07:02:57;;;;;;;1434.13;96.67;;;-0.10;99.90;0.30;92111.00;;;;7400248;19;20128;-76
2022/04/01 07:05:25;;;;;;;1181.63;83.73;;;-0.10;99.90;0.30;92140.00;;;;7401330;19;20121;-75
2022/04/01 07:08:02;;;;;;;1692.67;103.63;;;-0.10;99.90;0.20;92126.00;;;;7397223;19;20147;-76
2022/04/01 07:10:30;;;;;;;1076.70;83.73;;;-0.10;99.90;0.20;92133.00;;;;7396285;19;20552;-79
2022/04/01 07:12:58;;;;;;;1246.43;82.27;;;-0.10;99.90;0.20;92173.00;;;;7405584;19;20145;-79
2022/04/01 07:15:32;;;;;;;653.33;49.90;;;-0.10;99.90;0.30;92171.00;;;;7401939;19;20135;-77
2022/04/01 07:18:00;;;;;;;507.20;49.83;;;-0.10;99.90;0.10;92148.00;;;;7399834;19;20153;-79
2022/04/01 07:20:27;;;;;;;400.77;47.17;;;-0.10;99.90;0.20;92157.00;;;;7400343;19;20147;-77
2022/04/01 07:23:01;;;;;;;93.67;32.70;;;-0.10;99.90;0.30;92154.00;;;;7404451;19;20195;-78
2022/04/01 07:25:30;;;;;;;106.47;35.67;;;-0.10;99.90;0.40;92140.00;;;;7413159;19;20125;-78
2022/04/01 07:27:57;;;;;;;81.77;33.67;;;-0.10;99.90;0.30;92159.00;;;;7405336;19;20166;-78
2022/04/01 07:30:31;;;;;;;70.03;31.33;;;0.00;99.90;0.40;92164.00;;;;7404436;19;20496;-76
2022/04/01 07:32:59;;;;;;;80.97;32.03;;;0.00;99.90;0.40;92158.00;;;;7396229;19;20148;-77
2022/04/01 07:35:27;;;;;;;104.20;34.13;;;0.10;99.90;0.60;92160.00;;;;7392742;19;20131;-77
2022/04/01 07:38:03;;;;;;;87.87;30.20;;;0.10;99.90;0.20;92146.00;;;;7395328;19;20156;-76
2022/04/01 07:40:31;;;;;;;76.90;33.03;;;0.00;99.90;0.20;92168.00;;;;7397437;19;20472;-76
2022/04/01 07:42:58;;;;;;;103.53;32.73;;;0.00;99.90;0.30;92164.00;;;;7396154;19;20216;-76
2022/04/01 07:45:34;;;;;;;88.67;32.50;;;0.00;99.90;0.40;92148.00;;;;7395350;19;20595;-77
2022/04/01 07:48:03;;;;;;;64.63;30.87;;;0.00;99.90;0.30;92177.00;;;;7392415;19;20597;-77
2022/04/01 07:50:30;;;;;;;62.53;28.97;;;0.00;99.90;0.30;92154.00;;;;7394392;19;20151;-76
2022/04/01 07:53:12;;;;;;;71.77;30.20;;;0.00;99.90;0.30;92170.00;;;;7395201;19;20144;-77
2022/04/01 07:55:42;;;;;;;64.67;28.13;;;0.00;99.90;0.30;92173.00;;;;7399188;19;20143;-76
2022/04/01 07:58:18;;;;;;;51.33;27.37;;;0.00;99.90;0.20;92160.00;;;;7399482;19;20147;-77
2022/04/01 08:00:53;;;;;;;69.33;28.17;;;-0.10;99.90;0.40;92186.00;;;;7400425;19;20250;-77
2022/04/01 08:03:27;;;;;;;48.73;25.47;;;0.00;99.90;0.50;92147.00;;;;7402703;19;20215;-77
2022/04/01 08:05:55;;;;;;;52.63;27.00;;;0.00;99.90;0.50;92164.00;;;;7404098;19;20148;-76
2022/04/01 08:08:22;;;;;;;44.17;25.10;;;0.00;99.90;0.60;92161.00;;;;7406840;19;20155;-77
2022/04/01 08:10:56;;;;;;;42.57;23.47;;;0.00;99.90;0.60;92161.00;;;;7406463;19;20172;-77
2022/04/01 08:13:24;;;;;;;47.00;22.27;;;0.10;99.90;0.60;92187.00;;;;7403031;19;20165;-78
2022/04/01 08:15:52;;;;;;;39.40;20.60;;;0.10;99.90;0.50;92195.00;;;;7405324;19;20128;-80
2022/04/01 08:18:27;;;;;;;38.77;20.77;;;0.10;99.90;0.60;92157.00;;;;7402354;19;20457;-76
2022/04/01 08:20:54;;;;;;;34.63;20.10;;;0.10;99.90;0.60;92187.00;;;;7403172;19;20140;-77
2022/04/01 08:23:22;;;;;;;41.63;20.33;;;0.10;99.90;0.50;92192.00;;;;7402988;19;20141;-77
2022/04/01 08:25:56;;;;;;;33.30;20.07;;;0.10;99.90;0.60;92208.00;;;;7400974;19;20120;-78
2022/04/01 08:28:24;;;;;;;30.60;18.53;;;0.20;99.90;0.80;92200.00;;;;7402421;19;20135;-77
2022/04/01 08:30:51;;;;;;;34.17;19.67;;;0.20;99.90;0.70;92205.00;;;;7402216;19;20154;-79
2022/04/01 08:33:26;;;;;;;33.50;20.07;;;0.30;99.90;0.70;92200.00;;;;7401971;19;20125;-78
2022/04/01 08:35:53;;;;;;;30.80;18.17;;;0.30;43.50;0.70;92206.00;;;;7405043;19;20132;-78
2022/04/01 08:38:21;;;;;;;29.93;17.93;;;0.20;1.00;0.60;92215.00;;;;7392042;19;20145;-77
2022/04/01 08:40:55;;;;;;;30.57;18.23;;;0.30;1.00;0.50;92205.00;;;;7401531;19;20136;-78
2022/04/01 08:43:36;;;;;;;30.00;19.43;;;0.30;1.00;0.60;92198.00;;;;7402544;19;20137;-78
2022/04/01 08:46:10;;;;;;;30.40;19.23;;;0.30;1.00;0.70;92193.00;;;;7403621;19;20121;-78
2022/04/01 08:48:38;;;;;;;31.57;20.83;;;0.30;1.00;0.80;92196.00;;;;7401131;19;20141;-78
2022/04/01 08:51:05;;;;;;;31.33;20.67;;;0.30;1.00;0.70;92216.00;;;;7406403;19;20148;-79
2022/04/01 08:53:52;;;;;;;32.47;18.67;;;0.30;1.00;0.90;92195.00;;;;7404717;19;20165;-79
2022/04/01 08:56:26;;;;;;;30.67;20.30;;;0.30;1.00;0.70;92222.00;;;;7406668;19;20125;-79
2022/04/01 08:59:00;;;;;;;29.03;18.17;;;0.30;1.00;0.60;92208.00;;;;7401908;19;20148;-78
2022/04/01 09:04:24;;;;;;;26.10;17.17;;;0.10;99.90;0.50;92055.00;;;;7391579;19;20208;-81
2022/04/01 09:07:16;;;;;;;23.77;15.97;;;0.10;99.90;0.40;92245.00;;;;7403783;19;20521;-78
2022/04/01 09:09:43;;;;;;;22.50;15.37;;;0.10;99.90;0.40;92217.00;;;;7394855;19;20164;-77
2022/04/01 09:12:19;;;;;;;23.43;15.77;;;0.00;99.90;0.40;92234.00;;;;7396711;19;20143;-76
2022/04/01 09:14:57;;;;;;;30.17;15.57;;;0.10;99.90;0.20;92231.00;;;;7396396;19;20133;-78
2022/04/01 09:17:43;;;;;;;20.87;14.40;;;0.00;1.00;0.40;92233.00;;;;7393065;19;20137;-76
2022/04/01 09:20:14;;;;;;;25.57;14.00;;;0.00;99.90;0.20;92224.00;;;;7393905;19;20184;-76
2022/04/01 09:22:57;;;;;;;21.30;15.00;;;0.00;99.90;0.40;92251.00;;;;7396451;19;20168;-76
2022/04/01 09:25:24;;;;;;;19.13;13.37;;;0.00;99.90;0.40;92255.00;;;;7395839;19;20192;-77
2022/04/01 09:27:58;;;;;;;19.77;13.90;;;0.00;99.90;0.50;92220.00;;;;7395488;19;20128;-76
2022/04/01 09:30:29;;;;;;;23.80;13.87;;;0.00;99.90;0.60;92216.00;;;;7393011;19;20124;-76
2022/04/01 09:33:01;;;;;;;20.57;13.53;;;0.00;99.90;0.40;92224.00;;;;7393431;19;20141;-76
2022/04/01 09:35:36;;;;;;;17.80;13.20;;;0.00;99.90;0.20;92224.00;;;;7401674;19;20140;-79
2022/04/01 09:38:09;;;;;;;18.33;12.87;;;0.00;99.90;0.50;92253.00;;;;7398684;19;20129;-76
2022/04/01 09:40:44;;;;;;;19.73;13.10;;;0.10;99.90;0.50;92243.00;;;;7400232;19;20124;-77
2022/04/01 09:43:22;;;;;;;18.73;12.87;;;0.10;99.90;0.70;92236.00;;;;7401898;19;20161;-79
2022/04/01 09:46:05;;;;;;;15.43;11.53;;;0.10;99.90;0.60;92263.00;;;;7395643;19;20136;-79
2022/04/01 09:48:40;;;;;;;15.30;11.40;;;0.10;99.90;0.60;92221.00;;;;7398485;19;20137;-79
2022/04/01 09:51:15;;;;;;;15.43;11.77;;;0.10;99.90;0.70;92257.00;;;;7400114;19;20153;-80
2022/04/01 09:53:54;;;;;;;16.30;11.97;;;0.10;99.90;0.70;92234.00;;;;7402673;19;20125;-78
2022/04/01 09:56:54;;;;;;;13.80;10.70;;;0.20;99.90;0.80;92258.00;;;;7393160;19;20559;-76
2022/04/01 09:59:24;;;;;;;13.63;11.03;;;0.20;99.90;0.70;92251.00;;;;7392823;19;20149;-75
2022/04/01 10:02:01;;;;;;;13.53;10.23;;;0.20;97.70;0.50;92261.00;;;;7401788;19;20140;-79
2022/04/01 10:04:35;;;;;;;14.83;10.80;;;0.10;77.60;0.60;92244.00;;;;7412827;19;20167;-79
2022/04/01 10:07:11;;;;;;;12.43;10.30;;;0.10;75.30;0.60;92256.00;;;;7416324;19;20169;-78
2022/04/01 10:09:40;;;;;;;14.80;11.13;;;0.10;99.90;0.50;92271.00;;;;7414657;19;20629;-79
2022/04/01 10:12:34;;;;;;;15.30;11.27;;;0.10;99.90;0.60;92276.00;;;;7404103;19;20144;-79
2022/04/01 10:15:10;;;;;;;13.73;11.07;;;0.10;77.50;0.40;92267.00;;;;7405918;19;20161;-78
2022/04/01 10:17:55;;;;;;;15.37;11.73;;;0.10;9.90;0.60;92259.00;;;;7404432;19;20447;-79
2022/04/01 10:20:35;;;;;;;14.97;12.10;;;0.10;6.40;0.50;92233.00;;;;7403746;19;20133;-79
2022/04/01 10:23:11;;;;;;;15.13;11.80;;;0.10;1.00;0.90;92234.00;;;;7403739;19;20604;-79
2022/04/01 10:26:01;;;;;;;18.83;10.97;;;0.20;1.00;0.80;92275.00;;;;7406502;19;20620;-80
2022/04/01 10:28:29;;;;;;;11.97;10.27;;;0.30;3.00;0.90;92281.00;;;;7406837;19;20597;-80
2022/04/01 10:31:03;;;;;;;12.80;10.10;;;0.40;1.00;1.00;92270.00;;;;7424498;19;20177;-79
2022/04/01 10:33:35;;;;;;;14.03;11.00;;;0.40;1.00;0.90;92276.00;;;;7425331;19;20180;-78
2022/04/01 10:36:29;;;;;;;12.07;10.07;;;0.40;1.00;0.80;92260.00;;;;7422795;19;20160;-80
2022/04/01 10:39:07;;;;;;;11.80;9.93;;;0.40;1.00;0.80;92275.00;;;;7423445;19;20208;-80
2022/04/01 10:41:35;;;;;;;10.90;9.03;;;0.50;1.00;1.00;92276.00;;;;7410371;19;20150;-79
2022/04/01 10:44:06;;;;;;;11.60;9.20;;;0.50;1.00;1.00;92288.00;;;;7400954;19;20135;-78
2022/04/01 10:46:58;;;;;;;9.53;8.33;;;0.50;1.00;0.90;92290.00;;;;7402731;19;20673;-79
2022/04/01 10:52:30;;;;;;;11.67;7.73;;;0.50;1.00;0.90;92283.00;;;;7403543;19;20207;-79
2022/04/01 10:55:03;;;;;;;8.77;7.63;;;0.50;1.00;1.20;92283.00;;;;7408296;19;20133;-79
2022/04/01 10:57:50;;;;;;;8.47;6.97;;;0.50;1.00;0.80;92291.00;;;;7407764;19;20133;-78
2022/04/01 11:00:19;;;;;;;8.03;7.00;;;0.60;1.00;0.90;92289.00;;;;7413463;19;20128;-79
2022/04/01 11:03:30;;;;;;;9.40;7.50;;;0.70;99.90;1.20;92295.00;;;;7410139;19;20136;-79
2022/04/01 11:06:27;;;;;;;8.57;7.33;;;0.70;99.90;1.60;92299.00;;;;7416357;19;20140;-80
2022/04/01 11:09:04;;;;;;;8.90;7.53;;;0.80;99.90;1.40;92288.00;;;;7415709;19;20143;-79
2022/04/01 11:11:33;;;;;;;8.40;7.37;;;0.80;99.90;1.50;92285.00;;;;7416380;19;20146;-79
2022/04/01 11:14:08;;;;;;;7.53;6.73;;;0.90;99.90;1.60;92280.00;;;;7418814;19;20136;-79
2022/04/01 11:16:52;;;;;;;6.33;5.73;;;0.90;99.90;1.30;92290.00;;;;7419267;19;20550;-81
2022/04/01 11:19:26;;;;;;;7.27;6.40;;;0.90;99.90;1.40;92283.00;;;;7421891;19;20136;-80
2022/04/01 11:22:01;;;;;;;6.97;6.13;;;1.00;99.90;1.20;92301.00;;;;7423136;19;20136;-79
2022/04/01 11:24:38;;;;;;;7.33;6.13;;;1.00;54.40;1.70;92287.00;;;;7423757;19;20121;-81
2022/04/01 11:27:22;;;;;;;8.07;6.90;;;1.00;99.90;1.70;92278.00;;;;7425019;19;20137;-80
2022/04/01 11:30:09;;;;;;;7.27;6.30;;;1.10;22.20;1.90;92281.00;;;;7421475;19;20157;-81
2022/04/01 11:32:38;;;;;;;7.90;7.07;;;1.10;6.90;1.20;92301.00;;;;7419125;19;20142;-81